Time;durP1;ratioP1;P1;durP2;ratioP2;P2;SDS_P1;SDS_P2;PMS_P1;PMS_P2;Temp;Humidity;BMP_temperature;BMP_pressure;BME280_temperature;BME280_humidity;BME280_pressure;Samples;Min_cycle;Max_cycle;Signal;HPM_P1;HPM_P2
2022/04/05 00:00:08;;;;;;;0.40;0.40;;;4.50;94.50;;;;;;5033541;28;20202;-66
2022/04/05 00:02:33;;;;;;;0.40;0.40;;;4.40;94.40;;;;;;5032645;28;20179;-66
2022/04/05 00:04:59;;;;;;;0.30;0.30;;;4.60;94.60;;;;;;5033804;28;20224;-66
2022/04/05 00:07:25;;;;;;;0.40;0.40;;;4.60;94.20;;;;;;5034001;28;20404;-66
2022/04/05 00:09:51;;;;;;;0.37;0.37;;;4.50;94.00;;;;;;5033488;28;20284;-66
2022/04/05 00:12:20;;;;;;;1.15;1.15;;;4.60;93.80;;;;;;5033753;28;20178;-66
2022/04/05 00:14:48;;;;;;;0.30;0.30;;;4.50;93.80;;;;;;5034257;28;20171;-66
2022/04/05 00:17:15;;;;;;;0.40;0.40;;;4.70;94.50;;;;;;5033568;28;20257;-66
2022/04/05 00:20:12;;;;;;;0.30;0.30;;;4.70;94.50;;;;;;5031711;28;20675;-66
2022/04/05 00:22:37;;;;;;;0.30;0.30;;;4.80;94.60;;;;;;5033548;28;20200;-66
2022/04/05 00:25:04;;;;;;;0.50;0.50;;;4.80;94.80;;;;;;5033828;28;20182;-66
2022/04/05 00:27:29;;;;;;;0.40;0.40;;;4.70;94.50;;;;;;5033457;28;20528;-66
2022/04/05 00:29:56;;;;;;;0.30;0.30;;;4.60;95.10;;;;;;5033278;28;20184;-66
2022/04/05 00:32:21;;;;;;;0.40;0.40;;;4.60;95.40;;;;;;5033747;28;20174;-66
2022/04/05 00:34:47;;;;;;;0.40;0.40;;;4.60;95.10;;;;;;5033667;28;20539;-66
2022/04/05 00:37:13;;;;;;;0.40;0.40;;;4.60;95.10;;;;;;5033616;28;20184;-66
2022/04/05 00:39:38;;;;;;;0.30;0.30;;;4.50;95.10;;;;;;5033123;28;20187;-66
2022/04/05 00:42:04;;;;;;;0.30;0.30;;;4.60;95.10;;;;;;5033726;28;20635;-66
2022/04/05 00:44:30;;;;;;;0.30;0.30;;;4.60;94.80;;;;;;5033544;28;20552;-66
2022/04/05 00:47:00;;;;;;;0.30;0.30;;;4.60;95.20;;;;;;5033444;28;20528;-66
2022/04/05 00:49:35;;;;;;;0.40;0.40;;;4.60;95.10;;;;;;5033056;28;20189;-66
2022/04/05 00:52:00;;;;;;;0.30;0.30;;;4.80;95.00;;;;;;5033899;28;20185;-66
2022/04/05 00:54:28;;;;;;;0.30;0.30;;;4.90;95.20;;;;;;5037213;28;20628;-66
2022/04/05 00:56:56;;;;;;;0.30;0.30;;;4.80;94.40;;;;;;5037200;28;20533;-66
2022/04/05 00:59:25;;;;;;;0.30;0.30;;;4.60;94.20;;;;;;5036980;28;20206;-66
2022/04/05 01:01:53;;;;;;;0.40;0.40;;;4.70;94.60;;;;;;5037187;28;20173;-66
2022/04/05 01:04:21;;;;;;;0.40;0.40;;;4.50;94.50;;;;;;5036928;28;20614;-66
2022/04/05 01:06:48;;;;;;;0.38;0.38;;;4.40;94.70;;;;;;5037085;28;20183;-66
2022/04/05 01:09:14;;;;;;;0.38;0.38;;;4.40;94.60;;;;;;5036919;28;20234;-66
2022/04/05 01:11:40;;;;;;;0.30;0.30;;;4.50;94.90;;;;;;5037546;28;20249;-66
2022/04/05 01:14:06;;;;;;;0.30;0.30;;;4.50;94.60;;;;;;5036947;28;20593;-66
2022/04/05 01:16:32;;;;;;;0.35;0.35;;;4.30;94.00;;;;;;5036939;28;20552;-66
2022/04/05 01:18:57;;;;;;;1.23;1.17;;;4.30;94.40;;;;;;5036846;28;20194;-66
2022/04/05 01:21:23;;;;;;;0.30;0.30;;;4.50;94.60;;;;;;5037246;28;20531;-66
2022/04/05 01:24:12;;;;;;;0.30;0.30;;;4.60;94.40;;;;;;5036638;28;20231;-66
2022/04/05 01:26:47;;;;;;;0.30;0.30;;;4.70;94.20;;;;;;5037063;28;20428;-66
2022/04/05 01:29:14;;;;;;;0.30;0.30;;;4.70;93.70;;;;;;5036558;28;20189;-66
2022/04/05 01:31:44;;;;;;;0.40;0.40;;;4.70;93.80;;;;;;5036545;28;20181;-66
2022/04/05 01:34:10;;;;;;;0.35;0.35;;;4.60;93.50;;;;;;5036673;28;20182;-66
2022/04/05 01:36:41;;;;;;;0.40;0.40;;;4.70;93.50;;;;;;5036429;28;20223;-66
2022/04/05 01:39:07;;;;;;;0.30;0.30;;;4.70;93.30;;;;;;5036394;28;20194;-66
2022/04/05 01:41:33;;;;;;;1.20;1.20;;;4.60;93.20;;;;;;5036517;28;20174;-66
2022/04/05 01:43:58;;;;;;;0.30;0.30;;;4.60;93.40;;;;;;5036707;28;20202;-66
2022/04/05 01:46:24;;;;;;;0.30;0.30;;;4.60;93.40;;;;;;5036345;28;20166;-66
2022/04/05 01:48:50;;;;;;;0.40;0.40;;;4.80;93.50;;;;;;5036150;28;20656;-66
2022/04/05 01:51:16;;;;;;;0.30;0.30;;;4.70;93.70;;;;;;5036246;28;20568;-66
2022/04/05 01:53:41;;;;;;;0.30;0.30;;;4.80;94.00;;;;;;5036253;28;20239;-66
2022/04/05 01:56:07;;;;;;;0.30;0.30;;;4.80;94.10;;;;;;5036321;28;20178;-66
2022/04/05 01:58:36;;;;;;;2.10;2.00;;;4.80;94.10;;;;;;5036402;28;20518;-66
2022/04/05 02:01:02;;;;;;;0.75;0.75;;;4.90;93.60;;;;;;5035830;28;20170;-66
2022/04/05 02:03:30;;;;;;;0.40;0.40;;;4.90;93.00;;;;;;5035096;28;20580;-66
2022/04/05 02:05:56;;;;;;;0.35;0.35;;;4.90;92.90;;;;;;5034770;28;20178;-66
2022/04/05 02:08:23;;;;;;;0.40;0.40;;;4.80;93.10;;;;;;5036200;28;20192;-66
2022/04/05 02:10:49;;;;;;;0.30;0.30;;;4.70;93.00;;;;;;5034992;28;20169;-66
2022/04/05 02:13:15;;;;;;;0.40;0.40;;;4.90;93.20;;;;;;5051251;28;20774;-66
2022/04/05 02:15:41;;;;;;;0.33;0.33;;;5.00;93.30;;;;;;5035713;28;20173;-66
2022/04/05 02:18:07;;;;;;;0.30;0.30;;;5.00;93.00;;;;;;5035635;28;20401;-66
2022/04/05 02:20:33;;;;;;;0.40;0.40;;;5.10;92.90;;;;;;5035581;28;20522;-66
2022/04/05 02:22:59;;;;;;;0.30;0.30;;;4.90;92.80;;;;;;5035791;28;20198;-66
2022/04/05 02:25:26;;;;;;;0.30;0.30;;;4.70;92.90;;;;;;5035688;28;20518;-66
2022/04/05 02:27:52;;;;;;;0.30;0.30;;;4.60;93.00;;;;;;5033522;28;20277;-67
2022/04/05 02:30:17;;;;;;;0.30;0.30;;;4.50;93.50;;;;;;5034108;28;20667;-65
2022/04/05 02:32:44;;;;;;;0.30;0.30;;;4.40;93.70;;;;;;5036054;28;20194;-72
2022/04/05 02:35:11;;;;;;;1.20;0.82;;;4.50;93.60;;;;;;5035826;28;20177;-69
2022/04/05 02:37:37;;;;;;;0.40;0.40;;;4.40;93.30;;;;;;5035679;28;20693;-69
2022/04/05 02:40:03;;;;;;;0.30;0.30;;;4.30;94.10;;;;;;5035343;28;20554;-68
2022/04/05 02:42:29;;;;;;;0.30;0.30;;;4.40;94.60;;;;;;5035471;28;20188;-68
2022/04/05 02:44:55;;;;;;;0.30;0.30;;;4.60;94.60;;;;;;5034138;28;20174;-68
2022/04/05 02:47:22;;;;;;;0.30;0.30;;;4.70;94.10;;;;;;5034535;28;20408;-69
2022/04/05 02:49:48;;;;;;;0.40;0.40;;;4.70;93.60;;;;;;5034862;28;20244;-68
2022/04/05 02:52:15;;;;;;;0.40;0.40;;;4.60;94.30;;;;;;5033353;28;20347;-68
2022/04/05 02:54:42;;;;;;;0.30;0.30;;;4.60;94.30;;;;;;5035429;28;20544;-69
2022/04/05 02:57:07;;;;;;;0.40;0.40;;;4.60;93.90;;;;;;5035103;28;20174;-67
2022/04/05 02:59:33;;;;;;;0.40;0.40;;;4.60;94.10;;;;;;5034769;28;20207;-68
2022/04/05 03:02:00;;;;;;;0.40;0.40;;;4.60;93.90;;;;;;5035182;28;20492;-73
2022/04/05 03:04:25;;;;;;;0.30;0.30;;;4.70;94.00;;;;;;5035160;28;20198;-68
2022/04/05 03:06:51;;;;;;;0.30;0.30;;;4.80;93.90;;;;;;5034845;28;20198;-68
2022/04/05 03:09:16;;;;;;;0.30;0.30;;;4.90;93.70;;;;;;5035235;28;20236;-67
2022/04/05 03:11:43;;;;;;;0.40;0.40;;;4.90;93.50;;;;;;5034673;28;20184;-67
2022/04/05 03:14:10;;;;;;;0.30;0.30;;;4.90;93.40;;;;;;5035143;28;20201;-67
2022/04/05 03:16:37;;;;;;;0.40;0.40;;;4.80;93.40;;;;;;5034638;28;20205;-67
2022/04/05 03:19:04;;;;;;;0.30;0.30;;;4.70;93.80;;;;;;5034408;28;20206;-67
2022/04/05 03:21:29;;;;;;;0.30;0.30;;;4.70;93.70;;;;;;5034591;28;20192;-66
2022/04/05 03:23:55;;;;;;;0.30;0.30;;;4.30;94.00;;;;;;5035260;28;20197;-66
2022/04/05 03:26:20;;;;;;;0.30;0.30;;;4.10;94.50;;;;;;5035034;28;20183;-67
2022/04/05 03:28:46;;;;;;;0.30;0.30;;;4.00;94.90;;;;;;5034444;28;20186;-67
2022/04/05 03:31:12;;;;;;;0.30;0.30;;;4.10;95.10;;;;;;5034184;28;20173;-67
2022/04/05 03:33:38;;;;;;;0.40;0.40;;;4.30;95.00;;;;;;5034697;28;20181;-67
2022/04/05 03:36:05;;;;;;;2.73;2.53;;;4.50;94.80;;;;;;5034731;28;20419;-67
2022/04/05 03:38:30;;;;;;;0.30;0.30;;;4.50;94.50;;;;;;5034332;28;20588;-67
2022/04/05 03:40:56;;;;;;;0.30;0.30;;;4.50;94.60;;;;;;5034327;28;20178;-67
2022/04/05 03:43:22;;;;;;;0.35;0.35;;;4.70;94.50;;;;;;5034176;28;20193;-67
2022/04/05 03:45:49;;;;;;;0.40;0.40;;;4.50;94.20;;;;;;5034716;28;20172;-68
2022/04/05 03:48:15;;;;;;;0.40;0.40;;;4.50;94.60;;;;;;5034157;28;20181;-66
2022/04/05 03:50:42;;;;;;;0.40;0.40;;;4.60;94.70;;;;;;5031905;28;20179;-66
2022/04/05 03:53:08;;;;;;;0.40;0.40;;;4.70;94.70;;;;;;5034054;28;20213;-66
2022/04/05 03:55:34;;;;;;;0.30;0.30;;;4.60;94.30;;;;;;5034324;28;20186;-65
2022/04/05 03:58:00;;;;;;;0.30;0.30;;;4.40;94.40;;;;;;5032110;28;20177;-67
2022/04/05 04:00:26;;;;;;;1.08;1.08;;;4.10;95.00;;;;;;5033701;28;20460;-66
2022/04/05 04:02:51;;;;;;;0.30;0.30;;;4.20;95.20;;;;;;5033115;28;20209;-66
2022/04/05 04:05:20;;;;;;;0.30;0.30;;;4.40;95.20;;;;;;5034297;28;20404;-65
2022/04/05 04:07:47;;;;;;;0.32;0.32;;;4.00;95.20;;;;;;5034324;28;20169;-65
2022/04/05 04:10:13;;;;;;;0.30;0.30;;;4.00;95.30;;;;;;5033400;28;20201;-66
2022/04/05 04:12:38;;;;;;;0.30;0.30;;;4.30;95.60;;;;;;5033804;28;20170;-65
2022/04/05 04:15:06;;;;;;;0.40;0.40;;;4.40;95.30;;;;;;5033839;28;20171;-66
2022/04/05 04:17:32;;;;;;;0.30;0.30;;;4.60;95.10;;;;;;5033944;28;20611;-66
2022/04/05 04:19:58;;;;;;;0.30;0.30;;;4.70;94.90;;;;;;5033466;28;20324;-66
2022/04/05 04:22:23;;;;;;;0.30;0.30;;;4.70;94.90;;;;;;5033521;28;20557;-67
2022/04/05 04:24:49;;;;;;;0.30;0.30;;;4.60;94.90;;;;;;5033549;28;20205;-67
2022/04/05 04:27:15;;;;;;;1.33;1.27;;;4.70;94.90;;;;;;5033165;28;20248;-66
2022/04/05 04:29:41;;;;;;;0.40;0.40;;;4.50;94.50;;;;;;5033579;28;20499;-66
2022/04/05 04:32:07;;;;;;;0.37;0.37;;;4.40;94.60;;;;;;5033864;28;20187;-67
2022/04/05 04:34:32;;;;;;;0.30;0.30;;;4.10;95.10;;;;;;5034099;28;20178;-67
2022/04/05 04:36:58;;;;;;;0.30;0.30;;;3.90;95.90;;;;;;5033763;28;20590;-67
2022/04/05 04:39:25;;;;;;;0.30;0.30;;;3.90;96.10;;;;;;5031558;28;20209;-67
2022/04/05 04:41:51;;;;;;;0.30;0.30;;;3.90;96.20;;;;;;5032858;28;20167;-67
2022/04/05 04:44:17;;;;;;;1.27;1.27;;;4.20;96.20;;;;;;5033549;28;20208;-67
2022/04/05 04:46:43;;;;;;;0.75;0.75;;;4.20;95.70;;;;;;5033572;28;20393;-67
2022/04/05 04:49:09;;;;;;;0.30;0.30;;;4.30;95.60;;;;;;5033169;28;20189;-67
2022/04/05 04:51:35;;;;;;;0.30;0.30;;;4.30;95.40;;;;;;5033237;28;20658;-67
2022/04/05 04:54:00;;;;;;;0.40;0.40;;;4.10;95.60;;;;;;5033418;28;20180;-67
2022/04/05 04:56:27;;;;;;;0.30;0.30;;;4.10;95.80;;;;;;5033013;28;20168;-67
2022/04/05 04:58:53;;;;;;;0.30;0.30;;;3.70;96.10;;;;;;5032964;28;20546;-67
2022/04/05 05:01:19;;;;;;;0.80;0.80;;;3.80;96.80;;;;;;5033567;28;20180;-67
2022/04/05 05:03:45;;;;;;;0.37;0.37;;;3.90;96.60;;;;;;5031009;28;20806;-67
2022/04/05 05:06:10;;;;;;;0.40;0.40;;;4.20;96.50;;;;;;5033085;28;20174;-67
2022/04/05 05:08:36;;;;;;;0.33;0.33;;;4.10;95.70;;;;;;5031799;28;20296;-67
2022/04/05 05:11:02;;;;;;;0.30;0.30;;;4.10;96.20;;;;;;5033195;28;20807;-67
2022/04/05 05:13:28;;;;;;;0.30;0.30;;;3.90;96.00;;;;;;5033496;28;20174;-67
2022/04/05 05:15:54;;;;;;;0.63;0.63;;;3.90;96.50;;;;;;5033219;28;20276;-70
2022/04/05 05:18:20;;;;;;;0.32;0.32;;;4.30;96.50;;;;;;5033288;28;20671;-67
2022/04/05 05:20:45;;;;;;;0.33;0.33;;;4.40;95.80;;;;;;5032700;28;20202;-67
2022/04/05 05:23:11;;;;;;;0.40;0.40;;;4.30;95.40;;;;;;5033181;28;20266;-67
2022/04/05 05:25:37;;;;;;;0.30;0.30;;;4.10;95.80;;;;;;5033253;28;20302;-67
2022/04/05 05:28:04;;;;;;;0.40;0.40;;;4.10;96.10;;;;;;5033289;28;20196;-67
2022/04/05 05:30:29;;;;;;;0.30;0.30;;;4.20;96.20;;;;;;5032966;28;20543;-67
2022/04/05 05:32:55;;;;;;;0.30;0.30;;;4.20;96.50;;;;;;5033116;28;20222;-67
2022/04/05 05:35:22;;;;;;;0.70;0.70;;;3.30;96.60;;;;;;5033184;28;20182;-67
2022/04/05 05:37:49;;;;;;;0.75;0.75;;;3.00;97.80;;;;;;5033100;28;20253;-67
2022/04/05 05:40:16;;;;;;;0.30;0.30;;;3.00;98.00;;;;;;5035407;28;20203;-67
2022/04/05 05:42:57;;;;;;;0.30;0.30;;;3.10;98.20;;;;;;5035146;28;20167;-67
2022/04/05 05:45:24;;;;;;;0.40;0.40;;;3.20;98.50;;;;;;5036550;28;20184;-67
2022/04/05 05:47:50;;;;;;;0.30;0.30;;;3.60;98.00;;;;;;5036391;28;20185;-67
2022/04/05 05:50:17;;;;;;;0.38;0.38;;;4.00;97.50;;;;;;5035907;28;20204;-67
2022/04/05 05:52:43;;;;;;;0.30;0.30;;;4.20;96.60;;;;;;5036170;28;20166;-67
2022/04/05 05:55:15;;;;;;;0.30;0.30;;;4.40;96.40;;;;;;5036139;28;20256;-67
2022/04/05 05:57:41;;;;;;;0.30;0.30;;;4.10;96.00;;;;;;5036259;28;20170;-67
2022/04/05 06:00:12;;;;;;;0.30;0.30;;;4.10;96.20;;;;;;5036070;28;20312;-67
2022/04/05 06:02:39;;;;;;;0.40;0.40;;;4.20;96.50;;;;;;5036134;28;20169;-67
2022/04/05 06:05:05;;;;;;;1.02;1.02;;;4.40;96.30;;;;;;5035929;28;20178;-67
2022/04/05 06:07:32;;;;;;;0.40;0.40;;;4.50;96.10;;;;;;5035894;28;20235;-67
2022/04/05 06:09:57;;;;;;;0.40;0.40;;;4.40;95.80;;;;;;5035584;28;20240;-67
2022/04/05 06:12:23;;;;;;;0.30;0.30;;;4.40;96.10;;;;;;5035863;28;20175;-67
2022/04/05 06:14:49;;;;;;;0.30;0.30;;;4.50;95.60;;;;;;5036011;28;20201;-67
2022/04/05 06:17:14;;;;;;;0.30;0.30;;;4.30;95.60;;;;;;5035679;28;20176;-67
2022/04/05 06:19:40;;;;;;;0.40;0.40;;;4.40;96.10;;;;;;5035632;28;20191;-67
2022/04/05 06:22:05;;;;;;;0.30;0.30;;;4.70;95.70;;;;;;5035833;28;20194;-67
2022/04/05 06:24:31;;;;;;;0.40;0.40;;;4.70;95.30;;;;;;5035620;28;20230;-67
2022/04/05 06:26:58;;;;;;;0.40;0.40;;;4.80;95.30;;;;;;5034713;28;20264;-66
2022/04/05 06:29:24;;;;;;;0.40;0.40;;;4.90;94.60;;;;;;5032873;28;20197;-66
2022/04/05 06:31:51;;;;;;;0.30;0.30;;;4.90;94.60;;;;;;5035681;28;20163;-66
2022/04/05 06:34:16;;;;;;;0.40;0.40;;;5.00;94.50;;;;;;5035752;28;20182;-66
2022/04/05 06:36:42;;;;;;;0.30;0.30;;;4.90;94.40;;;;;;5035681;28;20173;-66
2022/04/05 06:39:08;;;;;;;0.33;0.33;;;4.70;94.60;;;;;;5050745;28;20201;-67
2022/04/05 06:41:33;;;;;;;0.40;0.40;;;4.60;95.00;;;;;;5035665;28;20224;-66
2022/04/05 06:43:59;;;;;;;0.50;0.50;;;4.80;95.20;;;;;;5035769;28;20194;-67
2022/04/05 06:46:25;;;;;;;0.40;0.40;;;5.00;95.00;;;;;;5035272;28;20175;-67
2022/04/05 06:48:50;;;;;;;0.80;0.80;;;5.20;94.60;;;;;;5035208;28;20183;-67
2022/04/05 06:51:16;;;;;;;1.17;1.17;;;5.30;93.80;;;;;;5034888;28;20178;-66
2022/04/05 06:53:42;;;;;;;0.40;0.40;;;5.00;93.80;;;;;;5035381;28;20207;-66
2022/04/05 06:56:09;;;;;;;0.35;0.35;;;5.00;94.40;;;;;;5035549;28;20413;-66
2022/04/05 06:58:35;;;;;;;0.40;0.40;;;5.10;94.00;;;;;;5035606;28;20198;-66
2022/04/05 07:01:01;;;;;;;0.60;0.60;;;4.80;94.50;;;;;;5034810;28;20185;-66
2022/04/05 07:03:26;;;;;;;0.40;0.40;;;4.80;94.70;;;;;;5035173;28;20198;-67
2022/04/05 07:05:52;;;;;;;0.50;0.50;;;4.70;94.70;;;;;;5035296;28;20177;-66
2022/04/05 07:08:18;;;;;;;0.40;0.40;;;5.20;95.00;;;;;;5035018;28;20173;-67
2022/04/05 07:10:43;;;;;;;0.40;0.40;;;5.30;94.10;;;;;;5034864;28;20170;-67
2022/04/05 07:13:09;;;;;;;0.40;0.40;;;5.50;93.50;;;;;;5034162;28;20182;-66
2022/04/05 07:15:34;;;;;;;0.40;0.40;;;5.70;93.20;;;;;;5033850;28;20213;-67
2022/04/05 07:18:00;;;;;;;0.30;0.30;;;5.50;92.80;;;;;;5034774;28;20257;-66
2022/04/05 07:20:26;;;;;;;0.37;0.37;;;5.40;93.10;;;;;;5034619;28;20193;-67
2022/04/05 07:22:51;;;;;;;0.33;0.33;;;5.60;93.20;;;;;;5034776;28;20644;-67
2022/04/05 07:25:20;;;;;;;0.37;0.37;;;5.80;93.00;;;;;;5034758;28;20402;-67
2022/04/05 07:27:51;;;;;;;0.40;0.40;;;5.70;92.60;;;;;;5035049;28;20163;-67
2022/04/05 07:30:17;;;;;;;0.30;0.30;;;5.90;92.60;;;;;;5031204;28;20233;-67
2022/04/05 07:32:44;;;;;;;0.30;0.30;;;5.80;92.00;;;;;;5034601;28;20167;-67
2022/04/05 07:35:11;;;;;;;0.30;0.30;;;5.70;92.30;;;;;;5034576;28;20432;-66
2022/04/05 07:37:37;;;;;;;0.40;0.40;;;5.60;92.70;;;;;;5034058;28;20174;-66
2022/04/05 07:40:05;;;;;;;0.40;0.40;;;5.40;92.60;;;;;;5033830;28;20198;-66
2022/04/05 07:42:32;;;;;;;0.30;0.30;;;5.40;92.80;;;;;;5034140;28;20525;-66
2022/04/05 07:44:58;;;;;;;0.40;0.40;;;5.40;92.80;;;;;;5033654;28;20255;-66
2022/04/05 07:47:23;;;;;;;0.40;0.40;;;5.70;93.30;;;;;;5032496;28;20175;-66
2022/04/05 07:49:49;;;;;;;0.40;0.40;;;6.00;92.90;;;;;;5033951;28;20512;-66
2022/04/05 07:52:15;;;;;;;0.30;0.30;;;6.30;91.70;;;;;;5034494;28;20257;-66
2022/04/05 07:54:43;;;;;;;0.30;0.30;;;6.50;91.00;;;;;;5034629;28;20410;-66
2022/04/05 07:57:13;;;;;;;0.30;0.30;;;6.70;92.10;;;;;;5034868;28;20174;-67
2022/04/05 07:59:40;;;;;;;0.40;0.40;;;6.80;91.20;;;;;;5031806;28;20194;-66
2022/04/05 08:02:05;;;;;;;0.40;0.40;;;6.80;90.40;;;;;;5033345;28;20178;-66
2022/04/05 08:04:31;;;;;;;0.40;0.40;;;7.00;90.70;;;;;;5034118;28;20202;-66
2022/04/05 08:06:57;;;;;;;0.40;0.40;;;7.20;91.00;;;;;;5031448;28;20178;-66
2022/04/05 08:09:22;;;;;;;0.40;0.40;;;7.20;91.40;;;;;;5032800;28;20194;-66
2022/04/05 08:11:48;;;;;;;0.30;0.30;;;7.30;90.10;;;;;;5033401;28;20170;-66
2022/04/05 08:14:15;;;;;;;0.30;0.30;;;7.30;88.20;;;;;;5031711;28;20171;-66
2022/04/05 08:16:41;;;;;;;1.50;1.40;;;7.40;85.70;;;;;;5033510;28;20410;-66
2022/04/05 08:19:09;;;;;;;0.40;0.40;;;7.60;88.10;;;;;;5033438;28;20202;-66
2022/04/05 08:21:39;;;;;;;0.40;0.40;;;7.70;90.10;;;;;;5034381;28;20194;-67
2022/04/05 08:24:05;;;;;;;0.30;0.30;;;7.80;90.60;;;;;;5033984;28;20199;-67
2022/04/05 08:26:31;;;;;;;2.65;2.55;;;8.00;90.70;;;;;;5032290;28;20170;-66
2022/04/05 08:28:57;;;;;;;0.30;0.30;;;7.90;90.20;;;;;;5031337;28;20291;-66
2022/04/05 08:31:25;;;;;;;0.40;0.40;;;7.90;90.70;;;;;;5033348;28;20592;-67
2022/04/05 08:33:52;;;;;;;0.30;0.30;;;7.80;90.90;;;;;;5033091;28;20527;-67
2022/04/05 08:36:18;;;;;;;0.30;0.30;;;7.80;89.60;;;;;;5030763;28;20175;-66
2022/04/05 08:38:43;;;;;;;0.30;0.30;;;7.60;90.00;;;;;;5032307;28;20588;-67
2022/04/05 08:41:12;;;;;;;0.40;0.40;;;7.40;87.20;;;;;;5031937;28;20414;-67
2022/04/05 08:43:43;;;;;;;0.40;0.40;;;7.30;89.00;;;;;;5031274;28;20191;-67
2022/04/05 08:46:10;;;;;;;0.32;0.32;;;7.40;90.80;;;;;;5033838;28;20170;-67
2022/04/05 08:48:36;;;;;;;0.40;0.40;;;7.60;91.00;;;;;;5048754;28;20186;-67
2022/04/05 08:51:03;;;;;;;0.40;0.40;;;7.60;90.60;;;;;;5033286;28;20171;-67
2022/04/05 08:53:30;;;;;;;0.40;0.40;;;7.70;89.90;;;;;;5033228;28;20198;-67
2022/04/05 08:55:57;;;;;;;0.30;0.30;;;7.80;86.00;;;;;;5031883;28;20178;-67
2022/04/05 08:58:23;;;;;;;0.40;0.40;;;8.00;83.20;;;;;;5033310;28;20179;-66
2022/04/05 09:00:51;;;;;;;0.40;0.40;;;7.90;81.60;;;;;;5031298;28;20299;-67
2022/04/05 09:03:16;;;;;;;0.40;0.40;;;8.10;82.10;;;;;;5033339;28;20199;-67
2022/04/05 09:05:44;;;;;;;0.30;0.30;;;8.30;82.80;;;;;;5033791;28;20229;-66
2022/04/05 09:08:31;;;;;;;0.40;0.40;;;8.50;83.20;;;;;;5032941;28;20167;-66
2022/04/05 09:11:08;;;;;;;0.40;0.40;;;8.50;80.90;;;;;;5030971;28;20706;-66
2022/04/05 09:13:34;;;;;;;0.38;0.38;;;8.20;80.40;;;;;;5034504;28;20171;-66
2022/04/05 09:16:04;;;;;;;0.40;0.40;;;8.30;86.10;;;;;;5036185;28;20204;-66
2022/04/05 09:18:44;;;;;;;0.30;0.30;;;8.50;87.40;;;;;;5036223;28;20179;-66
2022/04/05 09:21:10;;;;;;;0.40;0.40;;;8.60;83.60;;;;;;5036899;28;20199;-66
2022/04/05 09:23:41;;;;;;;0.30;0.30;;;8.70;88.20;;;;;;5037033;28;20243;-66
2022/04/05 09:26:17;;;;;;;0.30;0.30;;;8.80;85.30;;;;;;5034974;28;20629;-66
2022/04/05 09:28:48;;;;;;;0.30;0.30;;;8.80;82.60;;;;;;5037401;28;20226;-66
2022/04/05 09:31:17;;;;;;;0.40;0.40;;;8.80;79.40;;;;;;5036669;28;20171;-66
2022/04/05 09:34:05;;;;;;;0.30;0.30;;;8.60;81.10;;;;;;5034301;28;20691;-66
2022/04/05 09:36:39;;;;;;;0.40;0.40;;;8.50;86.30;;;;;;5037122;28;20554;-66
2022/04/05 09:39:17;;;;;;;0.30;0.30;;;8.30;82.90;;;;;;5036687;28;20558;-66
2022/04/05 09:41:52;;;;;;;0.35;0.35;;;8.20;84.80;;;;;;5036626;28;20262;-66
2022/04/05 09:44:27;;;;;;;0.60;0.60;;;8.30;84.80;;;;;;5036566;28;20253;-66
2022/04/05 09:47:23;;;;;;;0.30;0.30;;;8.10;81.60;;;;;;5036880;28;20659;-66
2022/04/05 09:49:49;;;;;;;0.38;0.38;;;8.50;84.10;;;;;;5035829;28;20227;-66
2022/04/05 09:52:41;;;;;;;0.30;0.30;;;8.80;82.00;;;;;;5036522;28;20201;-66
2022/04/05 09:55:12;;;;;;;0.40;0.40;;;8.80;80.30;;;;;;5036202;28;20253;-66
2022/04/05 09:57:38;;;;;;;0.38;0.38;;;8.50;79.20;;;;;;5036555;28;20537;-66
2022/04/05 10:00:12;;;;;;;0.40;0.40;;;8.60;82.10;;;;;;5035949;28;20191;-66
2022/04/05 10:03:08;;;;;;;0.50;0.50;;;8.70;81.20;;;;;;5034012;28;20171;-66
2022/04/05 10:05:35;;;;;;;0.30;0.30;;;8.50;81.60;;;;;;5036060;28;20195;-66
2022/04/05 10:08:02;;;;;;;0.40;0.40;;;8.10;79.40;;;;;;5036253;28;20691;-66
2022/04/05 10:10:28;;;;;;;0.40;0.40;;;8.20;81.40;;;;;;5034588;28;20215;-66
2022/04/05 10:12:54;;;;;;;0.30;0.30;;;8.00;82.20;;;;;;5035921;28;20167;-66
2022/04/05 10:15:21;;;;;;;0.40;0.40;;;8.20;83.30;;;;;;5035839;28;20402;-66
2022/04/05 10:17:48;;;;;;;0.30;0.30;;;8.50;87.20;;;;;;5035957;28;20407;-66
2022/04/05 10:20:17;;;;;;;0.40;0.40;;;8.70;90.20;;;;;;5035481;28;20253;-66
2022/04/05 10:22:44;;;;;;;0.40;0.40;;;8.70;90.30;;;;;;5035756;28;20184;-66
2022/04/05 10:25:10;;;;;;;0.30;0.30;;;8.90;84.60;;;;;;5035271;28;20261;-66
2022/04/05 10:27:36;;;;;;;0.33;0.33;;;8.90;81.10;;;;;;5035706;28;20173;-66
2022/04/05 10:30:13;;;;;;;0.30;0.30;;;9.00;84.50;;;;;;5035320;28;20654;-66
2022/04/05 10:32:54;;;;;;;0.30;0.30;;;9.30;82.30;;;;;;5035854;28;20219;-66
2022/04/05 10:35:23;;;;;;;0.40;0.40;;;9.20;81.80;;;;;;5035300;28;20247;-66
2022/04/05 10:37:51;;;;;;;0.30;0.30;;;8.50;81.10;;;;;;5035413;28;20181;-66
2022/04/05 10:40:20;;;;;;;0.30;0.30;;;8.40;81.60;;;;;;5035222;28;20211;-66
2022/04/05 10:42:52;;;;;;;0.82;0.82;;;8.60;83.70;;;;;;5035439;28;20501;-66
2022/04/05 10:45:33;;;;;;;0.30;0.30;;;9.00;83.10;;;;;;5035397;28;20256;-66
2022/04/05 10:48:20;;;;;;;0.40;0.40;;;9.10;81.10;;;;;;5035347;28;20164;-66
2022/04/05 10:51:01;;;;;;;0.30;0.30;;;9.00;79.70;;;;;;5035058;28;20180;-66
2022/04/05 10:53:33;;;;;;;0.40;0.40;;;9.10;83.40;;;;;;5035186;28;20207;-66
2022/04/05 10:56:09;;;;;;;0.30;0.30;;;9.50;82.30;;;;;;5035025;28;20251;-66
2022/04/05 10:58:47;;;;;;;0.30;0.30;;;9.50;81.60;;;;;;5034004;28;20713;-66
2022/04/05 11:01:23;;;;;;;0.30;0.30;;;9.80;82.40;;;;;;5034114;28;20181;-66
2022/04/05 11:04:17;;;;;;;0.30;0.30;;;10.00;78.40;;;;;;5035321;28;20221;-66
2022/04/05 11:07:05;;;;;;;0.30;0.30;;;9.90;78.40;;;;;;5035529;28;20172;-66
2022/04/05 11:09:32;;;;;;;0.40;0.40;;;9.70;79.70;;;;;;5034658;28;20190;-66
2022/04/05 11:12:04;;;;;;;0.30;0.30;;;10.00;80.60;;;;;;5035275;28;20180;-67
2022/04/05 11:14:47;;;;;;;0.68;0.68;;;10.10;77.60;;;;;;5035255;28;20173;-67
2022/04/05 11:17:14;;;;;;;0.30;0.30;;;9.90;79.60;;;;;;5034982;28;20174;-66
2022/04/05 11:19:44;;;;;;;0.30;0.30;;;9.50;81.80;;;;;;5032491;28;20210;-66
2022/04/05 11:22:25;;;;;;;0.30;0.30;;;9.80;83.20;;;;;;5034512;28;20599;-66
2022/04/05 11:24:56;;;;;;;0.30;0.30;;;9.70;82.40;;;;;;5034505;28;20195;-66
2022/04/05 11:27:28;;;;;;;0.30;0.30;;;10.10;81.50;;;;;;5034341;28;20175;-66
2022/04/05 11:30:37;;;;;;;0.40;0.40;;;10.20;80.30;;;;;;5034112;28;20217;-66
2022/04/05 11:33:15;;;;;;;0.30;0.30;;;11.00;82.70;;;;;;5034447;28;20183;-66
2022/04/05 11:35:50;;;;;;;0.40;0.40;;;11.50;77.20;;;;;;5034450;28;20652;-66
2022/04/05 11:38:18;;;;;;;2.45;2.35;;;11.00;76.40;;;;;;5034170;28;20178;-66
2022/04/05 11:40:46;;;;;;;0.30;0.30;;;10.60;80.20;;;;;;5034097;28;20162;-66
2022/04/05 11:43:27;;;;;;;2.03;1.95;;;10.80;81.70;;;;;;5034339;28;20535;-66
2022/04/05 11:46:03;;;;;;;0.30;0.30;;;11.40;79.20;;;;;;5034306;28;20186;-66
2022/04/05 11:48:30;;;;;;;0.40;0.40;;;11.70;77.30;;;;;;5034212;28;20238;-66
2022/04/05 11:50:59;;;;;;;0.30;0.30;;;11.70;76.50;;;;;;5033850;28;20254;-66
2022/04/05 11:53:30;;;;;;;0.30;0.30;;;11.90;76.50;;;;;;5034036;28;20179;-66
2022/04/05 11:56:22;;;;;;;0.40;0.40;;;12.10;76.10;;;;;;5034096;28;20171;-66
2022/04/05 11:58:53;;;;;;;0.30;0.30;;;11.80;74.30;;;;;;5034072;28;20202;-67
2022/04/05 12:01:28;;;;;;;1.23;1.13;;;11.80;76.20;;;;;;5034041;28;20170;-66
2022/04/05 12:04:00;;;;;;;0.32;0.32;;;12.00;76.20;;;;;;5034133;28;20198;-66
2022/04/05 12:06:29;;;;;;;0.30;0.30;;;12.10;77.30;;;;;;5031777;28;20167;-66
2022/04/05 12:08:57;;;;;;;0.30;0.30;;;12.00;74.70;;;;;;5033837;28;20223;-66
2022/04/05 12:11:24;;;;;;;0.40;0.40;;;12.10;77.00;;;;;;5033941;28;20530;-67
2022/04/05 12:13:58;;;;;;;0.30;0.30;;;12.10;75.30;;;;;;5034048;28;20171;-66
2022/04/05 12:16:42;;;;;;;0.30;0.30;;;11.90;74.40;;;;;;5033911;28;20521;-67
2022/04/05 12:19:08;;;;;;;0.38;0.38;;;12.00;78.90;;;;;;5033941;28;20198;-66
2022/04/05 12:21:34;;;;;;;0.73;0.73;;;12.60;75.10;;;;;;5033896;28;20182;-66
2022/04/05 12:24:00;;;;;;;0.30;0.30;;;12.80;75.00;;;;;;5033545;28;20676;-67
2022/04/05 12:26:31;;;;;;;0.40;0.40;;;12.80;75.00;;;;;;5033628;28;20543;-68
2022/04/05 12:28:59;;;;;;;0.30;0.30;;;12.80;73.50;;;;;;5033650;28;20190;-67
2022/04/05 12:31:30;;;;;;;0.30;0.30;;;12.90;75.10;;;;;;5034041;28;20401;-66
2022/04/05 12:34:05;;;;;;;0.30;0.30;;;12.80;72.00;;;;;;5033771;28;20923;-67
2022/04/05 12:36:37;;;;;;;0.30;0.30;;;12.80;73.50;;;;;;5033703;28;20404;-67
2022/04/05 12:39:05;;;;;;;0.30;0.30;;;12.90;73.40;;;;;;5032845;28;20432;-67
2022/04/05 12:41:39;;;;;;;0.30;0.30;;;13.30;72.60;;;;;;5032295;28;20903;-67
2022/04/05 12:44:12;;;;;;;0.30;0.30;;;13.50;70.00;;;;;;5033163;28;20441;-67
2022/04/05 12:46:58;;;;;;;0.80;0.80;;;13.50;71.80;;;;;;5031850;28;20397;-69
2022/04/05 12:49:34;;;;;;;0.50;0.50;;;12.70;71.80;;;;;;5036069;28;20197;-69
2022/04/05 12:52:26;;;;;;;0.30;0.30;;;12.30;72.90;;;;;;5037368;28;20162;-69
2022/04/05 12:54:58;;;;;;;0.30;0.30;;;11.80;74.50;;;;;;5035588;28;20166;-69
2022/04/05 12:57:32;;;;;;;0.30;0.30;;;11.80;77.20;;;;;;5037202;28;20625;-70
2022/04/05 13:00:22;;;;;;;0.75;0.75;;;12.30;73.80;;;;;;5036964;28;20947;-69
2022/04/05 13:03:00;;;;;;;0.30;0.30;;;12.80;74.60;;;;;;5037425;28;20560;-69